sensor_id;sensor_type;location;lat;lon;timestamp;pressure;altitude;pressure_sealevel;temperature;humidity
60307;BME280;46155;52.364;6.580;2023-02-26T04:01:39;101832.34;;;-0.68;87.98
60307;BME280;46155;52.364;6.580;2023-02-26T04:04:14;101834.72;;;-0.70;88.30
60307;BME280;46155;52.364;6.580;2023-02-26T04:06:41;101837.69;;;-0.74;87.49
60307;BME280;46155;52.364;6.580;2023-02-26T04:09:07;101845.00;;;-0.84;86.79
60307;BME280;46155;52.364;6.580;2023-02-26T04:11:34;101847.19;;;-1.01;87.09
60307;BME280;46155;52.364;6.580;2023-02-26T04:14:01;101848.50;;;-0.91;87.80
60307;BME280;46155;52.364;6.580;2023-02-26T04:16:26;101856.25;;;-0.83;88.49
60307;BME280;46155;52.364;6.580;2023-02-26T04:18:51;101861.03;;;-0.87;86.54
60307;BME280;46155;52.364;6.580;2023-02-26T04:21:19;101860.81;;;-0.95;88.21
60307;BME280;46155;52.364;6.580;2023-02-26T04:23:46;101859.75;;;-0.90;88.15
60307;BME280;46155;52.364;6.580;2023-02-26T04:26:11;101865.59;;;-0.98;86.81
60307;BME280;46155;52.364;6.580;2023-02-26T04:28:38;101862.97;;;-1.13;86.97
60307;BME280;46155;52.364;6.580;2023-02-26T04:31:04;101873.69;;;-1.02;87.53
60307;BME280;46155;52.364;6.580;2023-02-26T04:33:31;101879.81;;;-0.95;88.69
60307;BME280;46155;52.364;6.580;2023-02-26T04:35:57;101882.91;;;-0.97;87.49
60307;BME280;46155;52.364;6.580;2023-02-26T04:38:22;101884.78;;;-0.96;87.08
60307;BME280;46155;52.364;6.580;2023-02-26T04:40:49;101885.31;;;-0.99;87.06
60307;BME280;46155;52.364;6.580;2023-02-26T04:43:15;101887.44;;;-1.16;86.73
60307;BME280;46155;52.364;6.580;2023-02-26T04:45:40;101897.28;;;-1.34;87.43
60307;BME280;46155;52.364;6.580;2023-02-26T04:48:05;101890.09;;;-1.36;88.26
60307;BME280;46155;52.364;6.580;2023-02-26T04:50:30;101898.63;;;-1.30;88.19
60307;BME280;46155;52.364;6.580;2023-02-26T04:52:56;101887.69;;;-1.35;88.18
60307;BME280;46155;52.364;6.580;2023-02-26T04:55:21;101901.84;;;-1.46;88.04
60307;BME280;46155;52.364;6.580;2023-02-26T04:57:47;101908.09;;;-1.44;88.02
60307;BME280;46155;52.364;6.580;2023-02-26T05:00:13;101918.69;;;-1.55;88.16
60307;BME280;46155;52.364;6.580;2023-02-26T05:02:39;101917.59;;;-1.57;88.54
60307;BME280;46155;52.364;6.580;2023-02-26T05:05:04;101919.06;;;-1.52;89.70
60307;BME280;46155;52.364;6.580;2023-02-26T05:07:32;101927.56;;;-1.53;89.00
60307;BME280;46155;52.364;6.580;2023-02-26T05:09:57;101927.59;;;-1.46;88.61
60307;BME280;46155;52.364;6.580;2023-02-26T05:12:22;101931.75;;;-1.53;89.23
60307;BME280;46155;52.364;6.580;2023-02-26T05:14:48;101932.41;;;-1.42;89.56
60307;BME280;46155;52.364;6.580;2023-02-26T05:17:13;101942.56;;;-1.36;89.19
60307;BME280;46155;52.364;6.580;2023-02-26T05:19:38;101943.09;;;-1.39;88.85
60307;BME280;46155;52.364;6.580;2023-02-26T05:22:04;101944.56;;;-1.33;88.15
60307;BME280;46155;52.364;6.580;2023-02-26T05:24:29;101946.09;;;-1.28;88.10
60307;BME280;46155;52.364;6.580;2023-02-26T05:26:54;101951.63;;;-1.25;88.15
60307;BME280;46155;52.364;6.580;2023-02-26T05:29:19;101957.56;;;-1.19;88.48
60307;BME280;46155;52.364;6.580;2023-02-26T05:31:45;101957.19;;;-1.15;87.81
60307;BME280;46155;52.364;6.580;2023-02-26T05:34:10;101960.56;;;-1.09;89.07
60307;BME280;46155;52.364;6.580;2023-02-26T05:36:35;101961.31;;;-1.02;88.50
60307;BME280;46155;52.364;6.580;2023-02-26T05:39:01;101971.25;;;-1.06;87.89
60307;BME280;46155;52.364;6.580;2023-02-26T05:41:26;101967.41;;;-1.02;88.25
60307;BME280;46155;52.364;6.580;2023-02-26T05:43:51;101969.63;;;-0.98;87.86
60307;BME280;46155;52.364;6.580;2023-02-26T05:46:17;101979.00;;;-0.98;88.08
60307;BME280;46155;52.364;6.580;2023-02-26T05:48:42;101978.44;;;-1.03;88.04
60307;BME280;46155;52.364;6.580;2023-02-26T05:51:07;101978.25;;;-1.05;88.29
60307;BME280;46155;52.364;6.580;2023-02-26T05:53:34;101995.00;;;-1.01;87.27
60307;BME280;46155;52.364;6.580;2023-02-26T05:55:59;101991.31;;;-1.10;87.57
60307;BME280;46155;52.364;6.580;2023-02-26T05:58:24;101994.41;;;-1.13;87.74
60307;BME280;46155;52.364;6.580;2023-02-26T06:00:50;102005.44;;;-1.14;87.17
60307;BME280;46155;52.364;6.580;2023-02-26T06:03:15;102009.88;;;-1.13;87.29
60307;BME280;46155;52.364;6.580;2023-02-26T06:05:40;102006.38;;;-1.13;88.34
60307;BME280;46155;52.364;6.580;2023-02-26T06:08:05;101993.22;;;-1.22;87.48
60307;BME280;46155;52.364;6.580;2023-02-26T06:10:31;102012.81;;;-1.10;88.59
60307;BME280;46155;52.364;6.580;2023-02-26T06:12:56;102012.06;;;-1.16;87.90
60307;BME280;46155;52.364;6.580;2023-02-26T06:15:22;102020.31;;;-1.18;87.56
60307;BME280;46155;52.364;6.580;2023-02-26T06:17:48;102023.75;;;-1.25;87.79
60307;BME280;46155;52.364;6.580;2023-02-26T06:20:13;102020.09;;;-1.27;88.60
60307;BME280;46155;52.364;6.580;2023-02-26T06:22:38;102031.53;;;-1.18;88.47
60307;BME280;46155;52.364;6.580;2023-02-26T06:25:04;102041.13;;;-1.17;88.08
60307;BME280;46155;52.364;6.580;2023-02-26T06:27:30;102039.88;;;-1.13;88.30
60307;BME280;46155;52.364;6.580;2023-02-26T06:29:55;102043.75;;;-1.10;87.39
60307;BME280;46155;52.364;6.580;2023-02-26T06:32:20;102049.63;;;-1.11;87.33
60307;BME280;46155;52.364;6.580;2023-02-26T06:34:46;102051.81;;;-1.14;87.90
60307;BME280;46155;52.364;6.580;2023-02-26T06:37:11;102053.28;;;-1.16;88.37
60307;BME280;46155;52.364;6.580;2023-02-26T06:39:37;102058.06;;;-1.19;88.40
60307;BME280;46155;52.364;6.580;2023-02-26T06:42:02;102056.53;;;-1.24;89.25
60307;BME280;46155;52.364;6.580;2023-02-26T06:44:27;102070.88;;;-1.26;88.97
60307;BME280;46155;52.364;6.580;2023-02-26T06:46:53;102064.22;;;-1.31;88.89
60307;BME280;46155;52.364;6.580;2023-02-26T06:49:18;102087.47;;;-1.24;88.41
60307;BME280;46155;52.364;6.580;2023-02-26T06:51:43;102088.50;;;-1.29;88.21
60307;BME280;46155;52.364;6.580;2023-02-26T06:54:09;102089.78;;;-1.33;89.16
60307;BME280;46155;52.364;6.580;2023-02-26T06:56:34;102092.75;;;-1.30;89.04
60307;BME280;46155;52.364;6.580;2023-02-26T06:58:59;102096.44;;;-1.28;89.21
60307;BME280;46155;52.364;6.580;2023-02-26T07:01:25;102102.53;;;-1.27;88.50
60307;BME280;46155;52.364;6.580;2023-02-26T07:03:51;102099.09;;;-1.41;89.67
60307;BME280;46155;52.364;6.580;2023-02-26T07:06:17;102108.41;;;-1.48;88.61
60307;BME280;46155;52.364;6.580;2023-02-26T07:08:42;102112.56;;;-1.56;89.39
60307;BME280;46155;52.364;6.580;2023-02-26T07:11:07;102113.38;;;-1.50;90.57
60307;BME280;46155;52.364;6.580;2023-02-26T07:13:35;102118.00;;;-1.27;91.18
60307;BME280;46155;52.364;6.580;2023-02-26T07:16:00;102119.13;;;-0.98;91.00
60307;BME280;46155;52.364;6.580;2023-02-26T07:18:26;102118.41;;;-0.70;89.44
60307;BME280;46155;52.364;6.580;2023-02-26T07:20:51;102120.34;;;-0.54;89.28
60307;BME280;46155;52.364;6.580;2023-02-26T07:23:16;102129.06;;;-0.46;87.58
60307;BME280;46155;52.364;6.580;2023-02-26T07:25:42;102120.81;;;-0.37;87.24
60307;BME280;46155;52.364;6.580;2023-02-26T07:28:07;102123.78;;;-0.33;87.54
60307;BME280;46155;52.364;6.580;2023-02-26T07:30:32;102130.47;;;-0.28;87.35
60307;BME280;46155;52.364;6.580;2023-02-26T07:32:58;102139.91;;;-0.49;86.58
60307;BME280;46155;52.364;6.580;2023-02-26T07:35:23;102142.84;;;-0.53;88.92
60307;BME280;46155;52.364;6.580;2023-02-26T07:37:49;102143.56;;;-0.27;90.03
60307;BME280;46155;52.364;6.580;2023-02-26T07:40:14;102147.31;;;-0.03;88.58
60307;BME280;46155;52.364;6.580;2023-02-26T07:42:40;102147.34;;;0.04;86.86
60307;BME280;46155;52.364;6.580;2023-02-26T07:45:06;102138.72;;;0.11;86.34
60307;BME280;46155;52.364;6.580;2023-02-26T07:47:32;102147.13;;;-0.05;85.98
60307;BME280;46155;52.364;6.580;2023-02-26T07:49:58;102154.16;;;-0.04;86.28
60307;BME280;46155;52.364;6.580;2023-02-26T07:52:23;102146.34;;;-0.53;87.38
60307;BME280;46155;52.364;6.580;2023-02-26T07:54:49;102145.94;;;-0.28;87.04
60307;BME280;46155;52.364;6.580;2023-02-26T07:57:14;102156.69;;;-0.18;87.53
60307;BME280;46155;52.364;6.580;2023-02-26T07:59:39;102164.19;;;-0.27;88.56
60307;BME280;46155;52.364;6.580;2023-02-26T08:02:05;102147.69;;;-0.42;88.61
60307;BME280;46155;52.364;6.580;2023-02-26T08:04:30;102171.53;;;-0.30;89.57
60307;BME280;46155;52.364;6.580;2023-02-26T08:06:58;102165.34;;;0.31;91.06
60307;BME280;46155;52.364;6.580;2023-02-26T08:09:23;102181.94;;;0.26;86.60
60307;BME280;46155;52.364;6.580;2023-02-26T08:11:50;102178.56;;;0.13;86.06
60307;BME280;46155;52.364;6.580;2023-02-26T08:14:15;102180.44;;;-0.21;87.54
60307;BME280;46155;52.364;6.580;2023-02-26T08:16:40;102181.28;;;-0.35;88.40
60307;BME280;46155;52.364;6.580;2023-02-26T08:19:06;102191.94;;;-0.39;88.55
60307;BME280;46155;52.364;6.580;2023-02-26T08:21:31;102195.53;;;-0.24;88.95
60307;BME280;46155;52.364;6.580;2023-02-26T08:23:56;102181.84;;;-0.30;88.23
60307;BME280;46155;52.364;6.580;2023-02-26T08:26:22;102202.00;;;-0.20;88.57
60307;BME280;46155;52.364;6.580;2023-02-26T08:28:47;102197.63;;;-0.14;89.50
60307;BME280;46155;52.364;6.580;2023-02-26T08:31:13;102204.31;;;-0.02;88.73
60307;BME280;46155;52.364;6.580;2023-02-26T08:33:39;102197.84;;;-0.05;88.66
60307;BME280;46155;52.364;6.580;2023-02-26T08:36:05;102210.66;;;0.15;88.86
60307;BME280;46155;52.364;6.580;2023-02-26T08:38:31;102214.34;;;0.17;86.51
60307;BME280;46155;52.364;6.580;2023-02-26T08:40:56;102214.47;;;0.39;85.00
60307;BME280;46155;52.364;6.580;2023-02-26T08:43:22;102208.00;;;0.42;84.39
60307;BME280;46155;52.364;6.580;2023-02-26T08:45:47;102223.34;;;0.55;84.11
60307;BME280;46155;52.364;6.580;2023-02-26T08:48:13;102227.09;;;0.72;83.91
60307;BME280;46155;52.364;6.580;2023-02-26T08:50:39;102221.94;;;0.72;82.40
60307;BME280;46155;52.364;6.580;2023-02-26T08:53:05;102226.94;;;0.84;81.96
60307;BME280;46155;52.364;6.580;2023-02-26T08:55:30;102236.19;;;0.90;80.99
60307;BME280;46155;52.364;6.580;2023-02-26T08:57:55;102237.88;;;1.03;80.84
60307;BME280;46155;52.364;6.580;2023-02-26T09:00:21;102248.06;;;1.24;80.76
60307;BME280;46155;52.364;6.580;2023-02-26T09:02:47;102245.28;;;1.44;80.21
60307;BME280;46155;52.364;6.580;2023-02-26T09:05:13;102257.09;;;1.49;76.63
60307;BME280;46155;52.364;6.580;2023-02-26T09:07:39;102244.56;;;1.45;75.14
60307;BME280;46155;52.364;6.580;2023-02-26T09:10:05;102263.00;;;1.69;75.97
60307;BME280;46155;52.364;6.580;2023-02-26T09:12:32;102264.28;;;1.59;73.60
60307;BME280;46155;52.364;6.580;2023-02-26T09:14:57;102259.69;;;1.56;73.18
60307;BME280;46155;52.364;6.580;2023-02-26T09:17:24;102273.72;;;1.72;73.00
60307;BME280;46155;52.364;6.580;2023-02-26T09:19:49;102264.50;;;1.67;72.26
60307;BME280;46155;52.364;6.580;2023-02-26T09:22:15;102280.03;;;1.75;72.23
60307;BME280;46155;52.364;6.580;2023-02-26T09:24:40;102278.16;;;1.81;71.61
60307;BME280;46155;52.364;6.580;2023-02-26T09:27:05;102272.97;;;1.81;70.23
60307;BME280;46155;52.364;6.580;2023-02-26T09:29:31;102274.09;;;1.90;70.49
60307;BME280;46155;52.364;6.580;2023-02-26T09:31:56;102271.84;;;1.93;69.46
60307;BME280;46155;52.364;6.580;2023-02-26T09:34:21;102268.50;;;2.01;70.39
60307;BME280;46155;52.364;6.580;2023-02-26T09:36:47;102284.91;;;2.23;69.54
60307;BME280;46155;52.364;6.580;2023-02-26T09:39:12;102276.72;;;2.35;68.71
60307;BME280;46155;52.364;6.580;2023-02-26T09:41:41;102280.31;;;2.14;67.66
60307;BME280;46155;52.364;6.580;2023-02-26T09:44:24;102281.03;;;2.20;66.59
60307;BME280;46155;52.364;6.580;2023-02-26T09:49:26;102280.25;;;2.35;68.10
60307;BME280;46155;52.364;6.580;2023-02-26T09:52:02;102285.78;;;2.46;66.71
60307;BME280;46155;52.364;6.580;2023-02-26T09:54:31;102289.19;;;2.61;66.83
60307;BME280;46155;52.364;6.580;2023-02-26T09:56:59;102300.00;;;2.49;64.79
60307;BME280;46155;52.364;6.580;2023-02-26T09:59:31;102295.38;;;2.54;65.92
60307;BME280;46155;52.364;6.580;2023-02-26T10:02:04;102296.59;;;2.65;66.30
60307;BME280;46155;52.364;6.580;2023-02-26T10:04:48;102300.06;;;2.80;65.70
60307;BME280;46155;52.364;6.580;2023-02-26T10:12:36;102311.56;;;2.74;64.66
60307;BME280;46155;52.364;6.580;2023-02-26T10:15:14;102310.84;;;2.68;63.58
60307;BME280;46155;52.364;6.580;2023-02-26T10:20:41;102318.47;;;2.67;64.02
60307;BME280;46155;52.364;6.580;2023-02-26T10:23:25;102319.44;;;2.53;64.83
60307;BME280;46155;52.364;6.580;2023-02-26T10:26:01;102318.66;;;2.61;65.74
60307;BME280;46155;52.364;6.580;2023-02-26T10:28:37;102325.53;;;2.53;63.55
60307;BME280;46155;52.364;6.580;2023-02-26T10:39:32;102328.50;;;2.94;63.33
60307;BME280;46155;52.364;6.580;2023-02-26T10:42:10;102327.19;;;2.98;64.67
60307;BME280;46155;52.364;6.580;2023-02-26T10:44:43;102336.34;;;3.17;64.70
60307;BME280;46155;52.364;6.580;2023-02-26T10:47:45;102333.66;;;3.01;64.51
60307;BME280;46155;52.364;6.580;2023-02-26T10:50:16;102338.41;;;2.82;62.55
60307;BME280;46155;52.364;6.580;2023-02-26T10:52:44;102342.69;;;2.74;64.56
60307;BME280;46155;52.364;6.580;2023-02-26T10:55:27;102344.53;;;2.75;63.36
60307;BME280;46155;52.364;6.580;2023-02-26T10:58:10;102341.94;;;2.75;64.61
60307;BME280;46155;52.364;6.580;2023-02-26T11:00:36;102351.38;;;2.75;64.50
60307;BME280;46155;52.364;6.580;2023-02-26T11:03:04;102346.88;;;2.88;63.86
60307;BME280;46155;52.364;6.580;2023-02-26T11:05:32;102341.50;;;2.94;62.61
60307;BME280;46155;52.364;6.580;2023-02-26T11:08:04;102345.47;;;3.14;63.54
60307;BME280;46155;52.364;6.580;2023-02-26T11:10:39;102353.34;;;2.99;62.76
60307;BME280;46155;52.364;6.580;2023-02-26T11:13:06;102362.06;;;2.92;61.81
60307;BME280;46155;52.364;6.580;2023-02-26T11:15:31;102358.53;;;2.99;63.02
60307;BME280;46155;52.364;6.580;2023-02-26T11:17:58;102365.41;;;2.91;61.58
60307;BME280;46155;52.364;6.580;2023-02-26T11:20:32;102358.47;;;3.06;61.18
60307;BME280;46155;52.364;6.580;2023-02-26T11:23:00;102359.53;;;3.16;61.12
60307;BME280;46155;52.364;6.580;2023-02-26T11:25:29;102373.66;;;3.03;60.48
60307;BME280;46155;52.364;6.580;2023-02-26T11:28:02;102365.50;;;3.07;61.18
60307;BME280;46155;52.364;6.580;2023-02-26T11:30:31;102358.47;;;3.06;61.04
60307;BME280;46155;52.364;6.580;2023-02-26T11:32:58;102369.94;;;3.08;61.31
60307;BME280;46155;52.364;6.580;2023-02-26T11:35:28;102355.06;;;3.22;61.51
60307;BME280;46155;52.364;6.580;2023-02-26T11:37:58;102356.09;;;3.31;62.23
60307;BME280;46155;52.364;6.580;2023-02-26T11:40:36;102353.91;;;3.27;60.25
60307;BME280;46155;52.364;6.580;2023-02-26T11:43:06;102364.56;;;3.44;61.64
60307;BME280;46155;52.364;6.580;2023-02-26T11:45:35;102356.00;;;3.45;61.63
60307;BME280;46155;52.364;6.580;2023-02-26T11:48:06;102351.13;;;3.56;62.11
60307;BME280;46155;52.364;6.580;2023-02-26T11:50:46;102356.19;;;3.47;60.38
60307;BME280;46155;52.364;6.580;2023-02-26T11:53:47;102344.38;;;3.65;61.69
60307;BME280;46155;52.364;6.580;2023-02-26T11:56:25;102354.88;;;3.74;61.04
60307;BME280;46155;52.364;6.580;2023-02-26T11:58:52;102335.88;;;3.82;59.90
60307;BME280;46155;52.364;6.580;2023-02-26T12:01:19;102351.06;;;3.86;60.08
60307;BME280;46155;52.364;6.580;2023-02-26T12:03:48;102340.09;;;3.89;59.87
60307;BME280;46155;52.364;6.580;2023-02-26T12:06:21;102353.53;;;4.01;59.68
60307;BME280;46155;52.364;6.580;2023-02-26T12:08:49;102345.22;;;3.96;58.52
60307;BME280;46155;52.364;6.580;2023-02-26T12:19:43;102338.72;;;3.76;61.41
60307;BME280;46155;52.364;6.580;2023-02-26T12:33:31;102339.28;;;3.97;58.83
60307;BME280;46155;52.364;6.580;2023-02-26T12:44:56;102313.88;;;3.94;58.77
60307;BME280;46155;52.364;6.580;2023-02-26T12:52:57;102337.53;;;4.21;57.55
60307;BME280;46155;52.364;6.580;2023-02-26T12:55:53;102347.34;;;4.07;57.79
60307;BME280;46155;52.364;6.580;2023-02-26T13:01:43;102341.75;;;4.11;57.89
60307;BME280;46155;52.364;6.580;2023-02-26T13:13:10;102339.50;;;4.46;58.06
60307;BME280;46155;52.364;6.580;2023-02-26T13:16:00;102341.75;;;4.43;57.38
60307;BME280;46155;52.364;6.580;2023-02-26T13:21:06;102341.19;;;4.46;58.17
60307;BME280;46155;52.364;6.580;2023-02-26T13:23:56;102338.66;;;4.55;57.79
60307;BME280;46155;52.364;6.580;2023-02-26T13:26:22;102335.88;;;4.69;58.93
60307;BME280;46155;52.364;6.580;2023-02-26T13:31:39;102345.88;;;4.73;57.41
60307;BME280;46155;52.364;6.580;2023-02-26T13:34:17;102347.06;;;4.68;56.80
60307;BME280;46155;52.364;6.580;2023-02-26T13:36:45;102344.03;;;4.72;57.42
60307;BME280;46155;52.364;6.580;2023-02-26T13:39:33;102345.88;;;4.41;55.21
60307;BME280;46155;52.364;6.580;2023-02-26T13:42:14;102340.19;;;4.53;57.57
60307;BME280;46155;52.364;6.580;2023-02-26T13:45:02;102349.84;;;4.54;56.34
60307;BME280;46155;52.364;6.580;2023-02-26T13:53:35;102337.16;;;4.57;56.73
60307;BME280;46155;52.364;6.580;2023-02-26T13:56:07;102346.75;;;4.65;56.13
60307;BME280;46155;52.364;6.580;2023-02-26T13:58:39;102335.63;;;4.59;55.15
60307;BME280;46155;52.364;6.580;2023-02-26T14:03:48;102335.63;;;4.59;57.01
60307;BME280;46155;52.364;6.580;2023-02-26T14:06:36;102322.38;;;4.48;56.75
60307;BME280;46155;52.364;6.580;2023-02-26T14:14:44;102331.38;;;4.59;57.50
60307;BME280;46155;52.364;6.580;2023-02-26T14:17:40;102331.88;;;4.64;57.32
60307;BME280;46155;52.364;6.580;2023-02-26T14:20:17;102333.53;;;4.63;57.71
60307;BME280;46155;52.364;6.580;2023-02-26T14:23:33;102326.34;;;4.61;57.24
60307;BME280;46155;52.364;6.580;2023-02-26T14:25:42;102326.44;;;4.54;57.01
60307;BME280;46155;52.364;6.580;2023-02-26T14:28:33;102330.44;;;4.59;56.81
60307;BME280;46155;52.364;6.580;2023-02-26T14:33:29;102326.25;;;4.68;57.91
60307;BME280;46155;52.364;6.580;2023-02-26T14:35:56;102339.75;;;4.73;58.09
60307;BME280;46155;52.364;6.580;2023-02-26T14:38:32;102336.38;;;4.90;61.05
60307;BME280;46155;52.364;6.580;2023-02-26T14:41:32;102333.97;;;5.16;61.62
60307;BME280;46155;52.364;6.580;2023-02-26T14:44:14;102340.34;;;4.70;60.50
60307;BME280;46155;52.364;6.580;2023-02-26T14:46:43;102332.38;;;4.69;61.46
60307;BME280;46155;52.364;6.580;2023-02-26T14:49:17;102334.63;;;4.81;60.96
60307;BME280;46155;52.364;6.580;2023-02-26T14:57:36;102329.63;;;4.92;59.10
60307;BME280;46155;52.364;6.580;2023-02-26T15:00:25;102327.75;;;4.82;57.65
60307;BME280;46155;52.364;6.580;2023-02-26T15:05:53;102338.31;;;4.83;60.11
60307;BME280;46155;52.364;6.580;2023-02-26T15:11:56;102336.38;;;4.90;57.07
60307;BME280;46155;52.364;6.580;2023-02-26T15:17:39;102333.13;;;4.83;56.06
60307;BME280;46155;52.364;6.580;2023-02-26T15:23:11;102331.53;;;4.77;57.18
60307;BME280;46155;52.364;6.580;2023-02-26T15:25:41;102337.72;;;4.86;57.34
60307;BME280;46155;52.364;6.580;2023-02-26T15:28:13;102336.72;;;4.77;57.13
60307;BME280;46155;52.364;6.580;2023-02-26T15:30:45;102347.72;;;4.74;56.25
60307;BME280;46155;52.364;6.580;2023-02-26T15:33:13;102357.63;;;4.54;57.19
60307;BME280;46155;52.364;6.580;2023-02-26T15:35:42;102344.34;;;4.43;56.90
60307;BME280;46155;52.364;6.580;2023-02-26T15:38:08;102346.63;;;4.40;57.29
60307;BME280;46155;52.364;6.580;2023-02-26T15:40:35;102345.13;;;4.42;58.05
60307;BME280;46155;52.364;6.580;2023-02-26T15:43:03;102353.69;;;4.41;58.48
60307;BME280;46155;52.364;6.580;2023-02-26T15:45:37;102346.38;;;4.46;59.04
60307;BME280;46155;52.364;6.580;2023-02-26T15:48:10;102347.25;;;4.54;59.99
60307;BME280;46155;52.364;6.580;2023-02-26T15:50:40;102346.63;;;4.56;59.99
60307;BME280;46155;52.364;6.580;2023-02-26T15:53:08;102344.03;;;4.40;60.28
60307;BME280;46155;52.364;6.580;2023-02-26T15:55:41;102354.00;;;4.28;60.36
60307;BME280;46155;52.364;6.580;2023-02-26T15:58:09;102358.00;;;4.18;61.36
60307;BME280;46155;52.364;6.580;2023-02-26T16:00:35;102355.88;;;4.06;60.67
60307;BME280;46155;52.364;6.580;2023-02-26T16:03:01;102349.19;;;4.08;61.80
60307;BME280;46155;52.364;6.580;2023-02-26T16:05:28;102355.13;;;4.07;60.57
60307;BME280;46155;52.364;6.580;2023-02-26T16:07:54;102352.88;;;4.10;59.95
60307;BME280;46155;52.364;6.580;2023-02-26T16:10:32;102354.66;;;4.19;61.12
60307;BME280;46155;52.364;6.580;2023-02-26T16:12:59;102356.22;;;4.09;62.54
60307;BME280;46155;52.364;6.580;2023-02-26T16:15:32;102355.13;;;4.07;62.16
60307;BME280;46155;52.364;6.580;2023-02-26T16:18:00;102357.00;;;4.08;62.10
60307;BME280;46155;52.364;6.580;2023-02-26T16:20:33;102364.09;;;4.02;61.55
60307;BME280;46155;52.364;6.580;2023-02-26T16:23:06;102369.06;;;3.85;61.52
60307;BME280;46155;52.364;6.580;2023-02-26T16:25:36;102367.56;;;3.87;62.50
60307;BME280;46155;52.364;6.580;2023-02-26T16:28:14;102365.78;;;3.78;62.87
60307;BME280;46155;52.364;6.580;2023-02-26T16:30:42;102374.91;;;3.75;64.01
60307;BME280;46155;52.364;6.580;2023-02-26T16:33:12;102377.72;;;3.69;64.82
60307;BME280;46155;52.364;6.580;2023-02-26T16:35:43;102375.53;;;3.65;64.71
60307;BME280;46155;52.364;6.580;2023-02-26T16:38:19;102382.09;;;3.54;65.93
60307;BME280;46155;52.364;6.580;2023-02-26T16:40:45;102387.72;;;3.50;66.41
60307;BME280;46155;52.364;6.580;2023-02-26T16:46:04;102395.34;;;3.41;67.58
60307;BME280;46155;52.364;6.580;2023-02-26T16:48:34;102398.41;;;3.23;67.63
60307;BME280;46155;52.364;6.580;2023-02-26T16:51:12;102405.47;;;3.24;68.63
60307;BME280;46155;52.364;6.580;2023-02-26T16:53:46;102419.03;;;3.14;68.44
60307;BME280;46155;52.364;6.580;2023-02-26T16:56:16;102409.22;;;3.12;68.65
60307;BME280;46155;52.364;6.580;2023-02-26T16:58:53;102421.06;;;3.17;68.74
60307;BME280;46155;52.364;6.580;2023-02-26T17:01:22;102411.53;;;2.94;68.82
60307;BME280;46155;52.364;6.580;2023-02-26T17:03:57;102424.13;;;2.98;69.36
60307;BME280;46155;52.364;6.580;2023-02-26T17:06:26;102426.72;;;2.98;69.93
60307;BME280;46155;52.364;6.580;2023-02-26T17:08:56;102431.88;;;3.05;70.70
60307;BME280;46155;52.364;6.580;2023-02-26T17:11:27;102440.00;;;3.08;71.53
60307;BME280;46155;52.364;6.580;2023-02-26T17:16:34;102429.78;;;2.72;71.67
60307;BME280;46155;52.364;6.580;2023-02-26T17:18:59;102452.31;;;2.81;72.98
60307;BME280;46155;52.364;6.580;2023-02-26T17:21:26;102453.31;;;2.67;72.49
60307;BME280;46155;52.364;6.580;2023-02-26T17:23:51;102449.03;;;2.67;73.65
60307;BME280;46155;52.364;6.580;2023-02-26T17:26:17;102454.78;;;2.65;73.67
60307;BME280;46155;52.364;6.580;2023-02-26T17:28:42;102454.97;;;2.59;74.74
60307;BME280;46155;52.364;6.580;2023-02-26T17:31:08;102456.47;;;2.64;74.93
60307;BME280;46155;52.364;6.580;2023-02-26T17:33:37;102466.09;;;2.51;75.30
60307;BME280;46155;52.364;6.580;2023-02-26T17:36:04;102463.31;;;2.56;75.68
60307;BME280;46155;52.364;6.580;2023-02-26T17:38:30;102475.00;;;2.38;75.88
60307;BME280;46155;52.364;6.580;2023-02-26T17:40:57;102467.63;;;2.27;75.96
60307;BME280;46155;52.364;6.580;2023-02-26T17:43:23;102474.06;;;2.31;76.18
60307;BME280;46155;52.364;6.580;2023-02-26T17:45:49;102463.88;;;2.25;75.88
60307;BME280;46155;52.364;6.580;2023-02-26T17:48:15;102476.13;;;2.19;76.19
60307;BME280;46155;52.364;6.580;2023-02-26T17:53:17;102472.97;;;2.14;76.83
60307;BME280;46155;52.364;6.580;2023-02-26T17:55:47;102485.00;;;2.06;76.45
60307;BME280;46155;52.364;6.580;2023-02-26T17:58:26;102479.44;;;2.03;76.25
60307;BME280;46155;52.364;6.580;2023-02-26T18:00:52;102485.00;;;2.06;75.96
60307;BME280;46155;52.364;6.580;2023-02-26T18:03:18;102486.84;;;2.08;75.61
60307;BME280;46155;52.364;6.580;2023-02-26T18:05:45;102496.84;;;2.04;74.86
60307;BME280;46155;52.364;6.580;2023-02-26T18:08:21;102507.56;;;2.08;75.10
60307;BME280;46155;52.364;6.580;2023-02-26T18:10:47;102500.34;;;1.98;75.05
60307;BME280;46155;52.364;6.580;2023-02-26T18:13:13;102501.66;;;2.01;75.02
60307;BME280;46155;52.364;6.580;2023-02-26T18:15:38;102507.75;;;2.02;75.43
60307;BME280;46155;52.364;6.580;2023-02-26T18:18:03;102509.78;;;1.97;75.78
60307;BME280;46155;52.364;6.580;2023-02-26T18:20:31;102497.94;;;1.92;75.71
60307;BME280;46155;52.364;6.580;2023-02-26T18:22:56;102506.84;;;2.01;75.75
60307;BME280;46155;52.364;6.580;2023-02-26T18:25:22;102506.84;;;2.01;75.72
60307;BME280;46155;52.364;6.580;2023-02-26T18:27:53;102510.16;;;2.00;75.79
60307;BME280;46155;52.364;6.580;2023-02-26T18:30:26;102510.53;;;2.03;75.74
60307;BME280;46155;52.364;6.580;2023-02-26T18:32:53;102505.34;;;2.03;75.51
60307;BME280;46155;52.364;6.580;2023-02-26T18:35:18;102515.34;;;2.00;76.18
60307;BME280;46155;52.364;6.580;2023-02-26T18:37:44;102512.75;;;2.00;76.11
60307;BME280;46155;52.364;6.580;2023-02-26T18:40:15;102512.94;;;2.02;76.27
60307;BME280;46155;52.364;6.580;2023-02-26T18:42:41;102519.03;;;2.02;76.29
60307;BME280;46155;52.364;6.580;2023-02-26T18:45:06;102515.72;;;2.03;76.28
60307;BME280;46155;52.364;6.580;2023-02-26T18:47:32;102517.19;;;2.01;76.43
60307;BME280;46155;52.364;6.580;2023-02-26T18:49:57;102520.53;;;2.08;76.11
60307;BME280;46155;52.364;6.580;2023-02-26T18:52:23;102513.84;;;2.02;76.31
60307;BME280;46155;52.364;6.580;2023-02-26T18:54:48;102517.19;;;2.01;76.56
60307;BME280;46155;52.364;6.580;2023-02-26T18:57:13;102519.19;;;1.97;76.30
60307;BME280;46155;52.364;6.580;2023-02-26T18:59:39;102520.16;;;1.97;76.05
60307;BME280;46155;52.364;6.580;2023-02-26T19:02:05;102528.47;;;2.02;76.44